createdAt,value
2018-10-12T00:17:27.949Z,100.00
2018-10-12T00:38:05.376Z,100.00
2018-10-12T00:58:43.415Z,100.00
2018-10-12T01:19:28.817Z,100.00
2018-10-12T01:40:09.929Z,100.00
2018-10-12T02:00:51.348Z,100.00
2018-10-12T02:21:33.921Z,100.00
2018-10-12T02:42:16.222Z,100.00
2018-10-12T03:02:56.211Z,100.00
2018-10-12T03:23:35.476Z,100.00
2018-10-12T03:44:10.747Z,100.00
2018-10-12T04:04:53.097Z,100.00
2018-10-12T04:25:32.352Z,100.00
2018-10-12T04:46:10.386Z,100.00
2018-10-12T05:06:50.880Z,100.00
2018-10-12T05:27:33.226Z,100.00
2018-10-12T05:48:23.544Z,100.00
2018-10-12T06:09:06.805Z,100.00
2018-10-12T06:29:46.074Z,100.00
2018-10-12T06:50:24.718Z,100.00
2018-10-12T07:11:05.526Z,100.00
2018-10-12T07:31:46.025Z,100.00
2018-10-12T07:52:30.525Z,100.00
2018-10-12T08:13:08.545Z,100.00
2018-10-12T08:33:49.967Z,100.00
2018-10-12T08:54:32.385Z,100.00
2018-10-12T09:15:10.336Z,100.00
2018-10-12T09:35:49.603Z,100.00
2018-10-12T09:56:35.014Z,100.00
2018-10-12T10:17:13.633Z,100.00
2018-10-12T10:37:51.400Z,100.00
2018-10-12T10:58:28.163Z,97.86
2018-10-12T11:19:10.293Z,93.95
2018-10-12T11:39:48.272Z,89.71
2018-10-12T12:00:28.831Z,87.99
2018-10-12T12:21:06.809Z,83.64
2018-10-12T12:41:49.200Z,82.77
2018-10-12T13:02:28.407Z,82.49
2018-10-12T13:41:10.269Z,78.82
2018-10-12T14:01:50.461Z,75.21
2018-10-12T14:22:29.104Z,71.74
2018-10-12T14:43:08.065Z,74.92
2018-10-12T15:03:46.414Z,74.00
2018-10-12T15:24:22.604Z,73.82
2018-10-12T15:45:04.032Z,74.10
2018-10-12T16:05:43.281Z,78.98
2018-10-12T16:26:25.623Z,81.74
2018-10-12T16:47:08.883Z,83.98
2018-10-12T17:07:51.221Z,85.81
2018-10-12T17:28:36.329Z,87.72
2018-10-12T17:49:14.715Z,90.10
2018-10-12T18:09:58.344Z,91.52
2018-10-12T18:30:33.211Z,92.35
2018-10-12T18:51:11.544Z,94.31
2018-10-12T19:11:50.812Z,95.44
2018-10-12T19:32:32.391Z,96.34
2018-10-12T19:53:17.026Z,97.11
2018-10-12T20:13:53.835Z,99.18
2018-10-12T20:34:37.092Z,99.46
2018-10-12T20:55:17.289Z,99.84
2018-10-12T21:15:56.545Z,99.60
2018-10-12T21:36:35.811Z,100.00
2018-10-12T21:57:15.078Z,99.94
2018-10-12T22:17:56.494Z,100.00
2018-10-12T22:38:35.929Z,100.00
2018-10-12T22:59:16.562Z,100.00
2018-10-12T23:19:58.284Z,100.00
2018-10-12T23:40:35.404Z,100.00
